createdAt,value
2018-05-26T00:01:08.057Z,6.90
2018-05-26T00:03:36.376Z,6.80
2018-05-26T00:06:03.901Z,6.80
2018-05-26T00:08:31.436Z,6.40
2018-05-26T00:10:58.992Z,7.07
2018-05-26T00:13:26.493Z,6.30
2018-05-26T00:15:54.007Z,6.75
2018-05-26T00:18:21.517Z,7.10
2018-05-26T00:20:49.031Z,7.00
2018-05-26T00:23:16.562Z,6.57
2018-05-26T00:25:44.086Z,6.63
2018-05-26T00:28:11.597Z,7.10
2018-05-26T00:30:39.129Z,6.80
2018-05-26T00:33:06.674Z,6.97
2018-05-26T00:35:34.218Z,7.25
2018-05-26T00:38:01.742Z,6.97
2018-05-26T00:40:29.266Z,5.72
2018-05-26T00:42:57.549Z,6.80
2018-05-26T00:45:25.869Z,6.70
2018-05-26T00:47:53.400Z,6.75
2018-05-26T00:50:20.928Z,7.35
2018-05-26T00:52:49.242Z,7.25
2018-05-26T00:55:16.746Z,6.70
2018-05-26T00:57:44.258Z,6.45
2018-05-26T01:00:11.929Z,6.70
2018-05-26T01:02:39.426Z,6.37
2018-05-26T01:05:06.932Z,6.62
2018-05-26T01:07:34.446Z,6.47
2018-05-26T01:10:01.966Z,6.90
2018-05-26T01:12:29.477Z,6.70
2018-05-26T01:14:56.987Z,6.90
2018-05-26T01:17:24.500Z,6.62
2018-05-26T01:19:52.022Z,6.60
2018-05-26T01:22:19.601Z,7.18
2018-05-26T01:24:47.124Z,7.30
2018-05-26T01:27:14.745Z,8.48
2018-05-26T01:29:42.254Z,7.20
2018-05-26T01:32:09.772Z,7.22
2018-05-26T01:34:38.052Z,6.70
2018-05-26T01:37:06.333Z,7.18
2018-05-26T01:39:34.670Z,7.18
2018-05-26T01:42:02.201Z,6.18
2018-05-26T01:44:29.721Z,7.43
2018-05-26T01:46:57.972Z,7.10
2018-05-26T01:49:25.581Z,7.60
2018-05-26T01:51:53.068Z,7.10
2018-05-26T01:54:20.586Z,7.03
2018-05-26T01:56:48.901Z,7.40
2018-05-26T01:59:16.401Z,6.85
2018-05-26T02:01:43.928Z,7.03
2018-05-26T02:04:11.460Z,6.68
2018-05-26T02:06:39.000Z,6.32
2018-05-26T02:09:06.528Z,7.18
2018-05-26T02:11:34.028Z,6.77
2018-05-26T02:14:01.554Z,6.53
2018-05-26T02:16:29.074Z,6.32
2018-05-26T02:18:56.628Z,6.50
2018-05-26T02:21:24.130Z,7.40
2018-05-26T02:23:51.641Z,6.53
2018-05-26T02:26:19.142Z,6.90
2018-05-26T02:28:46.662Z,6.70
2018-05-26T02:31:14.154Z,6.47
2018-05-26T02:33:41.661Z,6.23
2018-05-26T02:36:09.203Z,6.97
2018-05-26T02:38:37.504Z,6.50
2018-05-26T02:41:05.071Z,6.60
2018-05-26T02:43:32.656Z,6.20
2018-05-26T02:46:00.188Z,6.28
2018-05-26T02:48:27.857Z,6.40
2018-05-26T02:50:55.365Z,5.75
2018-05-26T02:53:22.876Z,6.25
2018-05-26T02:55:50.409Z,7.00
2018-05-26T02:58:17.923Z,7.22
2018-05-26T03:00:46.254Z,7.35
2018-05-26T03:03:13.792Z,7.93
2018-05-26T03:05:54.443Z,6.70
2018-05-26T03:08:27.762Z,7.00
2018-05-26T03:11:00.869Z,6.93
2018-05-26T03:13:33.975Z,6.47
2018-05-26T03:16:07.183Z,7.00
2018-05-26T03:18:34.686Z,6.70
2018-05-26T03:21:02.204Z,6.47
2018-05-26T03:23:29.703Z,6.97
2018-05-26T03:25:57.264Z,7.00
2018-05-26T03:28:24.777Z,6.10
2018-05-26T03:30:52.338Z,7.55
2018-05-26T03:33:19.844Z,7.20
2018-05-26T03:35:48.146Z,6.82
2018-05-26T03:38:15.676Z,6.62
2018-05-26T03:40:43.183Z,6.67
2018-05-26T03:43:10.711Z,6.53
2018-05-26T03:45:38.986Z,7.03
2018-05-26T03:48:07.309Z,6.87
2018-05-26T03:50:34.850Z,7.25
2018-05-26T03:53:02.392Z,6.70
2018-05-26T03:55:42.373Z,6.72
2018-05-26T03:58:21.765Z,6.90
2018-05-26T04:00:49.280Z,7.20
2018-05-26T04:03:16.817Z,6.55
2018-05-26T04:05:44.328Z,6.40
2018-05-26T04:08:11.855Z,6.35
2018-05-26T04:10:39.396Z,6.40
2018-05-26T04:13:06.933Z,7.35
2018-05-26T04:15:35.218Z,6.37
2018-05-26T04:18:02.728Z,7.40
2018-05-26T04:20:30.247Z,6.75
2018-05-26T04:22:57.776Z,7.20
2018-05-26T04:25:25.285Z,7.80
2018-05-26T04:27:53.597Z,7.10
2018-05-26T04:30:21.097Z,7.30
2018-05-26T04:32:48.615Z,6.75
2018-05-26T04:35:16.155Z,7.28
2018-05-26T04:37:44.446Z,7.72
2018-05-26T04:40:11.973Z,8.10
2018-05-26T04:42:39.486Z,6.82
2018-05-26T04:45:07.010Z,6.53
2018-05-26T04:47:35.317Z,6.72
2018-05-26T04:50:02.853Z,7.57
2018-05-26T04:52:30.358Z,7.70
2018-05-26T04:54:57.895Z,9.43
2018-05-26T04:57:25.401Z,7.28
2018-05-26T04:59:52.900Z,7.30
2018-05-26T05:02:20.432Z,7.07
2018-05-26T05:04:47.952Z,7.15
2018-05-26T05:07:16.240Z,8.13
2018-05-26T05:09:43.773Z,8.10
2018-05-26T05:12:11.313Z,8.37
2018-05-26T05:14:38.844Z,9.30
2018-05-26T05:17:06.386Z,7.50
2018-05-26T05:19:33.923Z,7.37
2018-05-26T05:22:02.209Z,8.10
2018-05-26T05:24:30.475Z,7.80
2018-05-26T05:26:58.749Z,8.50
2018-05-26T05:29:27.050Z,7.78
2018-05-26T05:31:54.586Z,7.10
2018-05-26T05:34:22.113Z,7.78
2018-05-26T05:36:50.389Z,7.30
2018-05-26T05:39:17.921Z,7.90
2018-05-26T05:41:45.441Z,7.30
2018-05-26T05:44:12.975Z,8.38
2018-05-26T05:46:40.508Z,8.30
2018-05-26T05:49:08.055Z,7.80
2018-05-26T05:51:35.565Z,9.27
2018-05-26T05:54:03.085Z,8.35
2018-05-26T05:56:30.720Z,8.75
2018-05-26T05:58:58.190Z,8.15
2018-05-26T06:01:25.695Z,7.33
2018-05-26T06:03:54.294Z,7.97
2018-05-26T06:06:21.804Z,8.90
2018-05-26T06:08:49.320Z,8.20
2018-05-26T06:11:16.853Z,9.00
2018-05-26T06:13:44.454Z,8.70
2018-05-26T06:16:12.012Z,8.20
2018-05-26T06:18:40.285Z,8.32
2018-05-26T06:21:08.566Z,8.02
2018-05-26T06:23:36.853Z,7.60
2018-05-26T06:26:05.163Z,7.55
2018-05-26T06:28:32.664Z,7.65
2018-05-26T06:31:00.162Z,7.18
2018-05-26T06:33:27.728Z,7.68
2018-05-26T06:35:55.391Z,7.85
2018-05-26T06:38:22.937Z,7.40
2018-05-26T06:40:54.217Z,9.48
2018-05-26T06:43:24.161Z,7.28
2018-05-26T06:45:51.798Z,7.80
2018-05-26T06:48:19.841Z,14.98
2018-05-26T06:50:47.420Z,12.63
2018-05-26T06:53:15.785Z,6.22
2018-05-26T06:55:43.359Z,6.32
2018-05-26T06:58:10.889Z,7.00
2018-05-26T07:00:39.166Z,6.18
2018-05-26T07:03:07.462Z,5.82
2018-05-26T07:05:35.005Z,6.35
2018-05-26T07:08:02.527Z,6.05
2018-05-26T07:10:30.072Z,6.90
2018-05-26T07:12:57.669Z,5.60
2018-05-26T07:15:25.956Z,7.10
2018-05-26T07:17:54.246Z,5.12
2018-05-26T07:20:21.784Z,7.80
2018-05-26T07:22:50.085Z,6.60
2018-05-26T07:25:17.592Z,5.05
2018-05-26T07:27:45.142Z,6.17
2018-05-26T07:30:12.650Z,5.60
2018-05-26T07:32:40.192Z,5.00
2018-05-26T07:35:08.484Z,8.45
2018-05-26T07:37:36.797Z,5.57
2018-05-26T07:40:04.352Z,6.10
2018-05-26T07:42:31.868Z,4.80
2018-05-26T07:44:59.388Z,4.57
2018-05-26T07:47:26.956Z,5.43
2018-05-26T07:49:54.486Z,4.97
2018-05-26T07:52:24.340Z,5.15
2018-05-26T07:54:51.865Z,5.13
2018-05-26T07:57:19.389Z,6.30
2018-05-26T07:59:46.907Z,4.40
2018-05-26T08:02:14.414Z,3.80
2018-05-26T08:04:42.684Z,4.15
2018-05-26T08:07:11.065Z,4.00
2018-05-26T08:09:39.377Z,4.30
2018-05-26T08:12:06.892Z,4.20
2018-05-26T08:14:34.432Z,4.20
2018-05-26T08:17:01.938Z,4.93
2018-05-26T08:19:29.448Z,4.20
2018-05-26T08:21:57.924Z,3.42
2018-05-26T08:24:26.220Z,4.35
2018-05-26T08:26:53.818Z,3.50
2018-05-26T08:29:22.129Z,4.07
2018-05-26T08:31:49.656Z,3.60
2018-05-26T08:34:17.169Z,3.42
2018-05-26T08:36:44.898Z,4.07
2018-05-26T08:39:12.422Z,5.80
2018-05-26T08:41:40.736Z,4.10
2018-05-26T08:44:08.269Z,4.00
2018-05-26T08:46:35.800Z,4.22
2018-05-26T08:49:03.421Z,3.60
2018-05-26T08:51:30.977Z,3.20
2018-05-26T08:53:58.494Z,3.40
2018-05-26T08:56:26.797Z,3.10
2018-05-26T08:58:54.350Z,3.70
2018-05-26T09:01:21.937Z,3.85
2018-05-26T09:03:49.456Z,3.70
2018-05-26T09:06:17.926Z,3.70
2018-05-26T09:08:45.442Z,4.35
2018-05-26T09:11:13.079Z,4.72
2018-05-26T09:13:40.534Z,3.83
2018-05-26T09:16:08.886Z,3.70
2018-05-26T09:18:36.406Z,3.90
2018-05-26T09:21:03.920Z,3.80
2018-05-26T09:23:31.435Z,7.40
2018-05-26T09:25:58.950Z,3.90
2018-05-26T09:28:26.479Z,4.22
2018-05-26T09:30:53.986Z,4.10
2018-05-26T09:33:21.512Z,4.12
2018-05-26T09:35:49.035Z,5.30
2018-05-26T09:38:16.550Z,4.40
2018-05-26T09:40:44.128Z,4.10
2018-05-26T09:43:11.628Z,4.87
2018-05-26T09:45:39.152Z,4.10
2018-05-26T09:48:06.666Z,4.18
2018-05-26T09:50:34.241Z,4.28
2018-05-26T09:53:02.574Z,4.70
2018-05-26T09:55:30.091Z,4.00
2018-05-26T09:57:57.621Z,4.60
2018-05-26T10:00:25.166Z,4.20
2018-05-26T10:02:52.683Z,4.45
2018-05-26T10:05:20.209Z,4.25
2018-05-26T10:07:48.537Z,4.60
2018-05-26T10:10:16.059Z,4.30
2018-05-26T10:12:43.569Z,4.50
2018-05-26T10:15:11.097Z,4.68
2018-05-26T10:17:38.638Z,4.28
2018-05-26T10:20:06.168Z,4.10
2018-05-26T10:22:33.691Z,5.00
2018-05-26T10:25:01.257Z,4.62
2018-05-26T10:27:28.808Z,4.35
2018-05-26T10:29:56.363Z,4.30
2018-05-26T10:32:24.877Z,4.20
2018-05-26T10:34:52.387Z,4.00
2018-05-26T10:37:19.914Z,4.30
2018-05-26T10:39:47.430Z,4.43
2018-05-26T10:42:14.996Z,4.50
2018-05-26T10:44:42.552Z,4.57
2018-05-26T10:47:10.205Z,4.50
2018-05-26T10:49:37.739Z,4.90
2018-05-26T10:52:06.049Z,4.85
2018-05-26T10:54:33.537Z,4.50
2018-05-26T10:57:01.178Z,4.55
2018-05-26T10:59:28.724Z,4.00
2018-05-26T11:01:56.247Z,3.15
2018-05-26T11:04:24.545Z,3.62
2018-05-26T11:06:52.085Z,3.70
2018-05-26T11:09:19.638Z,3.80
2018-05-26T11:11:47.170Z,4.90
2018-05-26T11:14:14.697Z,4.00
2018-05-26T11:16:42.320Z,7.35
2018-05-26T11:19:10.618Z,5.25
2018-05-26T11:21:38.142Z,6.85
2018-05-26T11:24:05.958Z,3.85
2018-05-26T11:26:33.247Z,6.07
2018-05-26T11:29:01.580Z,6.65
2018-05-26T11:31:29.219Z,3.73
2018-05-26T11:33:57.508Z,3.80
2018-05-26T11:36:25.028Z,4.60
2018-05-26T11:38:52.549Z,4.10
2018-05-26T11:41:20.071Z,3.60
2018-05-26T11:43:47.609Z,3.45
2018-05-26T11:46:15.136Z,3.30
2018-05-26T11:48:42.667Z,3.70
2018-05-26T11:51:10.980Z,3.35
2018-05-26T11:53:38.516Z,3.50
2018-05-26T11:56:06.304Z,3.08
2018-05-26T11:58:33.825Z,4.40
2018-05-26T12:01:01.356Z,4.20
2018-05-26T12:03:28.881Z,3.10
2018-05-26T12:05:56.440Z,3.60
2018-05-26T12:08:23.951Z,3.20
2018-05-26T12:10:52.323Z,2.90
2018-05-26T12:13:19.840Z,3.47
2018-05-26T12:15:47.436Z,3.30
2018-05-26T12:18:14.992Z,3.80
2018-05-26T12:20:42.645Z,3.58
2018-05-26T12:23:10.211Z,3.70
2018-05-26T12:25:37.785Z,3.90
2018-05-26T12:28:05.302Z,4.93
2018-05-26T12:30:32.865Z,3.90
2018-05-26T12:33:00.547Z,3.60
2018-05-26T12:35:28.065Z,4.03
2018-05-26T12:37:55.628Z,3.70
2018-05-26T12:40:23.201Z,3.70
2018-05-26T12:42:50.720Z,3.80
2018-05-26T12:45:18.524Z,4.00
2018-05-26T12:47:46.015Z,3.90
2018-05-26T12:50:13.598Z,3.53
2018-05-26T12:52:41.292Z,3.58
2018-05-26T12:55:08.871Z,4.00
2018-05-26T12:57:36.380Z,3.30
2018-05-26T13:00:03.970Z,4.57
2018-05-26T13:02:31.504Z,3.83
2018-05-26T13:04:59.106Z,4.40
2018-05-26T13:07:26.627Z,3.62
2018-05-26T13:09:54.968Z,3.90
2018-05-26T13:12:22.492Z,5.00
2018-05-26T13:14:51.027Z,4.25
2018-05-26T13:17:18.727Z,4.15
2018-05-26T13:19:47.151Z,4.43
2018-05-26T13:22:14.768Z,4.20
2018-05-26T13:24:43.056Z,7.05
2018-05-26T13:27:10.679Z,5.75
2018-05-26T13:29:38.272Z,4.10
2018-05-26T13:32:06.575Z,5.60
2018-05-26T13:34:34.202Z,4.72
2018-05-26T13:37:02.550Z,4.07
2018-05-26T13:39:30.078Z,4.00
2018-05-26T13:41:57.600Z,4.10
2018-05-26T13:44:25.182Z,8.00
2018-05-26T13:46:52.757Z,4.30
2018-05-26T13:49:20.311Z,4.20
2018-05-26T13:51:48.003Z,4.67
2018-05-26T13:54:15.716Z,4.00
2018-05-26T13:56:43.230Z,4.05
2018-05-26T13:59:10.756Z,4.12
2018-05-26T14:01:38.320Z,4.00
2018-05-26T14:04:05.881Z,4.75
2018-05-26T14:06:33.549Z,5.15
2018-05-26T14:09:01.125Z,4.90
2018-05-26T14:11:28.685Z,4.50
2018-05-26T14:13:56.329Z,4.40
2018-05-26T14:16:23.895Z,6.18
2018-05-26T14:18:51.404Z,4.35
2018-05-26T14:21:19.028Z,4.33
2018-05-26T14:23:46.617Z,4.70
2018-05-26T14:26:14.140Z,4.20
2018-05-26T14:28:42.651Z,4.55
2018-05-26T14:31:10.213Z,4.62
2018-05-26T14:33:37.738Z,4.70
2018-05-26T14:36:05.298Z,4.65
2018-05-26T14:38:32.874Z,4.62
2018-05-26T14:41:00.456Z,4.18
2018-05-26T14:43:27.973Z,4.43
2018-05-26T14:45:55.564Z,4.00
2018-05-26T14:48:23.092Z,4.60
2018-05-26T14:50:50.633Z,4.53
2018-05-26T14:53:18.171Z,5.00
2018-05-26T14:55:45.776Z,4.50
2018-05-26T14:58:13.343Z,4.30
2018-05-26T15:00:41.573Z,3.85
2018-05-26T15:03:09.937Z,4.32
2018-05-26T15:05:37.861Z,4.68
2018-05-26T15:08:05.387Z,4.87
2018-05-26T15:10:33.801Z,4.70
2018-05-26T15:13:01.364Z,4.40
2018-05-26T15:15:28.934Z,5.00
2018-05-26T15:17:56.486Z,4.68
2018-05-26T15:20:24.021Z,4.50
2018-05-26T15:22:51.610Z,4.80
2018-05-26T15:25:19.130Z,4.30
2018-05-26T15:27:46.661Z,4.90
2018-05-26T15:30:14.205Z,4.35
2018-05-26T15:32:41.714Z,4.32
2018-05-26T15:35:10.149Z,4.70
2018-05-26T15:37:37.744Z,5.05
2018-05-26T15:40:05.314Z,4.40
2018-05-26T15:42:32.839Z,4.53
2018-05-26T15:45:04.660Z,4.12
2018-05-26T15:47:36.549Z,4.00
2018-05-26T16:02:12.366Z,5.12
2018-05-26T16:04:40.672Z,4.70
2018-05-26T16:07:08.268Z,4.50
2018-05-26T16:09:35.808Z,4.82
2018-05-26T16:12:03.333Z,5.47
2018-05-26T16:14:31.091Z,5.93
2018-05-26T16:16:59.416Z,4.27
2018-05-26T16:19:27.042Z,4.00
2018-05-26T16:21:54.620Z,4.50
2018-05-26T16:24:22.171Z,4.30
2018-05-26T16:26:49.705Z,5.25
2018-05-26T16:29:17.245Z,4.57
2018-05-26T16:31:44.770Z,3.90
2018-05-26T16:34:12.278Z,4.55
2018-05-26T16:36:39.787Z,5.45
2018-05-26T16:39:07.391Z,4.90
2018-05-26T16:41:34.941Z,4.95
2018-05-26T16:44:02.486Z,4.30
2018-05-26T16:46:30.017Z,6.90
2018-05-26T16:48:57.753Z,5.50
2018-05-26T16:51:25.693Z,5.05
2018-05-26T16:53:53.331Z,4.60
2018-05-26T16:56:20.937Z,4.57
2018-05-26T16:58:49.230Z,5.60
2018-05-26T17:01:16.824Z,4.55
2018-05-26T17:03:44.325Z,6.80
2018-05-26T17:06:12.758Z,4.78
2018-05-26T17:08:40.283Z,4.40
2018-05-26T17:11:08.581Z,4.05
2018-05-26T17:13:38.597Z,4.50
2018-05-26T17:16:06.167Z,5.47
2018-05-26T17:18:34.829Z,4.05
2018-05-26T17:21:02.430Z,4.15
2018-05-26T17:23:30.129Z,3.72
2018-05-26T17:25:57.701Z,3.73
2018-05-26T17:28:25.968Z,4.22
2018-05-26T17:30:55.309Z,3.50
2018-05-26T17:33:22.894Z,5.00
2018-05-26T17:35:50.460Z,4.30
2018-05-26T17:38:18.183Z,5.20
2018-05-26T17:40:46.467Z,4.40
2018-05-26T17:43:15.281Z,4.30
2018-05-26T17:45:43.704Z,4.75
2018-05-26T17:48:11.389Z,4.35
2018-05-26T17:50:39.036Z,4.43
2018-05-26T17:53:06.739Z,4.60
2018-05-26T17:55:34.293Z,4.90
2018-05-26T17:58:01.952Z,7.95
2018-05-26T18:00:29.476Z,4.25
2018-05-26T18:02:57.028Z,5.60
2018-05-26T18:05:24.725Z,4.10
2018-05-26T18:07:53.175Z,4.85
2018-05-26T18:10:21.824Z,4.87
2018-05-26T18:12:50.438Z,6.27
2018-05-26T18:15:18.097Z,5.53
2018-05-26T18:17:46.335Z,5.25
2018-05-26T18:20:14.370Z,4.90
2018-05-26T18:22:44.452Z,4.60
2018-05-26T18:25:12.540Z,4.45
2018-05-26T18:27:40.061Z,5.00
2018-05-26T18:30:09.650Z,5.82
2018-05-26T18:32:38.139Z,4.75
2018-05-26T18:35:06.872Z,4.50
2018-05-26T18:37:34.795Z,5.10
2018-05-26T18:40:02.556Z,5.22
2018-05-26T18:42:30.693Z,5.45
2018-05-26T18:44:58.284Z,4.75
2018-05-26T18:47:25.836Z,4.68
2018-05-26T18:49:54.316Z,5.82
2018-05-26T18:52:22.759Z,7.70
2018-05-26T18:54:50.297Z,8.23
2018-05-26T18:57:17.877Z,6.27
2018-05-26T18:59:45.450Z,7.75
2018-05-26T19:02:12.955Z,5.80
2018-05-26T19:04:40.642Z,6.85
2018-05-26T19:07:08.210Z,10.88
2018-05-26T19:09:35.794Z,9.47
2018-05-26T19:12:03.432Z,12.95
2018-05-26T19:14:31.934Z,12.70
2018-05-26T19:16:59.887Z,7.45
2018-05-26T19:19:27.454Z,6.87
2018-05-26T19:21:54.988Z,5.68
2018-05-26T19:24:22.541Z,15.57
2018-05-26T19:26:50.093Z,5.72
2018-05-26T19:29:17.732Z,11.48
2018-05-26T19:31:45.293Z,6.57
2018-05-26T19:34:12.881Z,7.30
2018-05-26T19:36:44.217Z,6.90
2018-05-26T19:39:15.698Z,7.10
2018-05-26T19:41:43.349Z,7.20
2018-05-26T19:44:10.995Z,7.00
2018-05-26T19:46:38.587Z,7.40
2018-05-26T19:49:07.337Z,18.15
2018-05-26T19:51:35.756Z,7.85
2018-05-26T19:54:03.650Z,8.77
2018-05-26T19:56:31.158Z,12.48
2018-05-26T19:58:58.757Z,8.52
2018-05-26T20:01:26.498Z,7.90
2018-05-26T20:03:54.104Z,8.40
2018-05-26T20:06:21.666Z,8.65
2018-05-26T20:08:49.235Z,7.97
2018-05-26T20:11:16.856Z,8.75
2018-05-26T20:13:44.502Z,8.20
2018-05-26T20:16:13.045Z,8.17
2018-05-26T20:18:42.637Z,8.88
2018-05-26T20:21:10.299Z,8.50
2018-05-26T20:23:37.870Z,9.80
2018-05-26T20:26:06.957Z,16.00
2018-05-26T20:28:35.731Z,10.35
2018-05-26T20:31:03.384Z,9.30
2018-05-26T20:33:31.895Z,9.45
2018-05-26T20:36:00.261Z,12.50
2018-05-26T20:38:27.843Z,9.45
2018-05-26T20:40:55.568Z,9.90
2018-05-26T20:43:23.451Z,9.60
2018-05-26T20:45:51.737Z,9.75
2018-05-26T20:48:19.509Z,10.10
2018-05-26T20:50:48.140Z,11.30
2018-05-26T20:53:15.760Z,10.47
2018-05-26T20:55:43.605Z,9.63
2018-05-26T20:58:11.150Z,10.32
2018-05-26T21:00:38.710Z,10.10
2018-05-26T21:03:07.158Z,9.83
2018-05-26T21:05:35.572Z,11.27
2018-05-26T21:08:03.616Z,11.50
2018-05-26T21:10:31.346Z,11.00
2018-05-26T21:12:59.483Z,10.88
2018-05-26T21:15:27.022Z,10.90
2018-05-26T21:17:54.590Z,10.60
2018-05-26T21:20:22.851Z,10.50
2018-05-26T21:22:52.668Z,11.10
2018-05-26T21:25:20.377Z,10.93
2018-05-26T21:27:48.113Z,11.85
2018-05-26T21:30:16.394Z,12.85
2018-05-26T21:32:44.103Z,11.43
2018-05-26T21:35:13.183Z,13.47
2018-05-26T21:37:40.986Z,12.82
2018-05-26T21:40:08.681Z,13.00
2018-05-26T21:42:36.322Z,12.43
2018-05-26T21:45:04.163Z,13.70
2018-05-26T21:47:31.822Z,14.40
2018-05-26T21:50:01.703Z,14.52
2018-05-26T21:52:29.737Z,13.15
2018-05-26T21:54:58.147Z,13.60
2018-05-26T21:57:26.115Z,23.87
2018-05-26T21:59:53.840Z,15.05
2018-05-26T22:02:22.702Z,13.70
2018-05-26T22:04:52.173Z,14.30
2018-05-26T22:07:19.911Z,14.52
2018-05-26T22:09:49.625Z,14.50
2018-05-26T22:12:18.402Z,13.90
2018-05-26T22:14:46.917Z,14.10
2018-05-26T22:17:15.618Z,13.75
2018-05-26T22:19:43.345Z,13.40
2018-05-26T22:22:13.596Z,14.43
2018-05-26T22:24:43.320Z,13.60
2018-05-26T22:27:11.212Z,13.23
2018-05-26T22:29:39.079Z,13.85
2018-05-26T22:32:08.039Z,13.52
2018-05-26T22:34:35.640Z,13.77
2018-05-26T22:37:03.458Z,15.52
2018-05-26T22:39:31.204Z,14.48
2018-05-26T22:41:59.813Z,14.32
2018-05-26T22:44:29.025Z,15.73
2018-05-26T22:46:56.611Z,14.77
2018-05-26T22:49:24.144Z,14.30
2018-05-26T22:51:52.145Z,14.30
2018-05-26T22:54:20.517Z,14.10
2018-05-26T22:56:48.984Z,15.55
2018-05-26T22:59:17.115Z,17.62
2018-05-26T23:01:45.579Z,15.60
2018-05-26T23:04:13.202Z,14.60
2018-05-26T23:06:41.028Z,14.43
2018-05-26T23:09:08.751Z,13.95
2018-05-26T23:11:36.525Z,13.60
2018-05-26T23:14:06.108Z,13.40
2018-05-26T23:16:33.649Z,14.18
2018-05-26T23:19:01.392Z,13.60
2018-05-26T23:21:31.248Z,13.20
2018-05-26T23:23:59.123Z,13.85
2018-05-26T23:26:26.915Z,14.07
2018-05-26T23:28:54.564Z,12.80
2018-05-26T23:31:22.105Z,14.07
2018-05-26T23:33:51.268Z,12.85
2018-05-26T23:36:18.863Z,12.65
2018-05-26T23:38:46.452Z,13.62
2018-05-26T23:41:14.090Z,14.18
2018-05-26T23:43:41.777Z,13.70
2018-05-26T23:46:09.955Z,13.25
2018-05-26T23:48:38.286Z,14.70
2018-05-26T23:51:05.837Z,13.60
2018-05-26T23:53:33.374Z,12.48
2018-05-26T23:56:01.717Z,14.40
2018-05-26T23:58:30.120Z,13.00
